Atkinsons Mills, Pennsylvania
Current Conditions -  °F | °C
As of 3:53 PM on Friday 28 Nov 2014 (Local Time) from KUNV Reporting Station
Broken Clouds Broken Clouds  
Wind Chill: 16°   Ceiling: 3900
Heat Index: 27°   Visibility: 10mi
Dew Point: 14°   Wind: 13mph
Humidity: 59%   Direction: 280°W
Pressure: 30.2"   Gusts: NA
Location:  40.5138°N, 77.7384°W
Report Text: KUNV 282053Z 28011KT 10SM BKN039 M03/M10 A3020
Loading
Personal Weather Stations






























Interactive Weather Map New forecast layout! Learn more

10-Day Weather Forecast

Advertisements
Track Severe Weather on mobile